Time;durP1;ratioP1;P1;durP2;ratioP2;P2;SDS_P1;SDS_P2;PMS_P1;PMS_P2;Temp;Humidity;BMP_temperature;BMP_pressure;BME280_temperature;BME280_humidity;BME280_pressure;Samples;Min_cycle;Max_cycle;Signal;HPM_P1;HPM_P2
2022/04/12 00:00:27;;;;;;;;;;;;;;;20.54;36.37;100334.06;7282258;19;152671;-53
2022/04/12 00:02:56;;;;;;;;;;;;;;;20.52;36.63;100327.97;7281340;19;154241;-54
2022/04/12 00:05:23;;;;;;;;;;;;;;;20.55;36.44;100326.47;7280626;19;152025;-53
2022/04/12 00:07:57;;;;;;;;;;;;;;;20.51;36.63;100325.47;7282955;19;153618;-53
2022/04/12 00:10:24;;;;;;;;;;;;;;;20.51;36.43;100319.84;7282280;19;153962;-53
2022/04/12 00:12:55;;;;;;;;;;;;;;;20.50;36.82;100324.63;7281089;19;151939;-53
2022/04/12 00:15:22;;;;;;;;;;;;;;;20.51;36.59;100322.66;7281931;19;152721;-54
2022/04/12 00:20:34;;;;;;;;;;;;;;;20.49;36.60;100322.19;7282430;19;153030;-54
2022/04/12 00:23:01;;;;;;;;;;;;;;;20.48;36.91;100312.94;7279302;19;153832;-54
2022/04/12 00:25:28;;;;;;;;;;;;;;;20.48;37.01;100314.91;7281783;19;151821;-54
2022/04/12 00:27:56;;;;;;;;;;;;;;;20.46;36.71;100318.03;7282262;19;151853;-54
2022/04/12 00:30:24;;;;;;;;;;;;;;;20.45;36.71;100313.56;7281840;19;153950;-54
2022/04/12 00:32:55;;;;;;;;;;;;;;;20.46;36.71;100317.19;7280506;19;152284;-54
2022/04/12 00:35:22;;;;;;;;;;;;;;;20.45;37.05;100315.53;7282189;19;153192;-54
2022/04/12 00:37:52;;;;;;;;;;;;;;;20.44;37.22;100313.91;7286610;19;153861;-54
2022/04/12 00:40:19;;;;;;;;;;;;;;;20.42;36.99;100301.00;7282573;19;152997;-54
2022/04/12 00:42:49;;;;;;;;;;;;;;;20.40;36.85;100299.66;7280466;19;153779;-54
2022/04/12 00:45:21;;;;;;;;;;;;;;;20.42;37.15;100297.38;7282364;19;151461;-54
2022/04/12 00:47:47;;;;;;;;;;;;;;;20.41;37.30;100302.16;7280934;19;151773;-54
2022/04/12 00:50:14;;;;;;;;;;;;;;;20.41;36.85;100292.91;7281215;19;153269;-55
2022/04/12 00:52:49;;;;;;;;;;;;;;;20.39;37.25;100304.47;7280603;19;152379;-54
2022/04/12 00:55:21;;;;;;;;;;;;;;;20.37;37.10;100306.75;7281742;19;153638;-54
2022/04/12 00:57:48;;;;;;;;;;;;;;;20.37;36.98;100291.91;7277208;19;155406;-54
2022/04/12 01:00:17;;;;;;;;;;;;;;;20.34;37.06;100293.38;7289578;19;151962;-54
2022/04/12 01:02:46;;;;;;;;;;;;;;;20.34;37.50;100282.16;7280709;19;153538;-54
2022/04/12 01:05:20;;;;;;;;;;;;;;;20.33;37.50;100283.31;7281962;19;151587;-54
2022/04/12 01:07:47;;;;;;;;;;;;;;;20.33;37.13;100282.47;7281257;19;153220;-54
2022/04/12 01:10:13;;;;;;;;;;;;;;;20.31;37.08;100282.78;7279584;19;153949;-54
2022/04/12 01:12:41;;;;;;;;;;;;;;;20.32;37.22;100289.22;7279346;19;151799;-54
2022/04/12 01:15:13;;;;;;;;;;;;;;;20.30;37.50;100291.56;7281295;19;152658;-54
2022/04/12 01:17:40;;;;;;;;;;;;;;;20.29;37.29;100287.06;7277738;19;152375;-54
2022/04/12 01:20:07;;;;;;;;;;;;;;;20.27;37.68;100286.53;7280282;19;151763;-54
2022/04/12 01:22:36;;;;;;;;;;;;;;;20.27;37.56;100286.53;7287413;19;154221;-54
2022/04/12 01:25:03;;;;;;;;;;;;;;;20.27;37.63;100286.53;7280677;19;151792;-54
2022/04/12 01:27:30;;;;;;;;;;;;;;;20.24;37.40;100288.03;7279356;19;152676;-54
2022/04/12 01:29:58;;;;;;;;;;;;;;;20.23;37.64;100274.31;7280068;19;153291;-54
2022/04/12 01:32:25;;;;;;;;;;;;;;;20.21;37.89;100276.63;7280026;19;151796;-54
2022/04/12 01:34:52;;;;;;;;;;;;;;;20.20;37.79;100274.97;7281237;19;152592;-53
2022/04/12 01:37:19;;;;;;;;;;;;;;;20.19;37.87;100284.53;7277331;19;154552;-54
2022/04/12 01:39:45;;;;;;;;;;;;;;;20.18;37.63;100277.25;7280814;19;151887;-54
2022/04/12 01:42:12;;;;;;;;;;;;;;;20.16;37.62;100266.38;7276849;19;153665;-54
2022/04/12 01:44:39;;;;;;;;;;;;;;;20.15;38.12;100261.06;7286486;19;154099;-54
2022/04/12 01:47:05;;;;;;;;;;;;;;;20.13;38.01;100258.59;7277044;19;152611;-54
2022/04/12 01:49:32;;;;;;;;;;;;;;;20.13;37.87;100252.13;7279176;19;153511;-54
2022/04/12 01:52:02;;;;;;;;;;;;;;;20.13;37.97;100241.75;7280665;19;152055;-54
2022/04/12 01:54:29;;;;;;;;;;;;;;;20.17;37.88;100256.78;7277160;19;153647;-54
2022/04/12 01:56:56;;;;;;;;;;;;;;;20.16;37.76;100257.97;7277533;19;152416;-57
2022/04/12 01:59:23;;;;;;;;;;;;;;;20.14;37.64;100248.19;7277925;19;152061;-54
2022/04/12 02:01:49;;;;;;;;;;;;;;;20.13;37.78;100254.94;7277035;19;153910;-54
2022/04/12 02:04:16;;;;;;;;;;;;;;;20.13;37.67;100249.34;7278033;19;153803;-54
2022/04/12 02:06:43;;;;;;;;;;;;;;;20.11;37.72;100255.28;7285820;19;151700;-54
2022/04/12 02:09:10;;;;;;;;;;;;;;;20.08;37.99;100261.53;7279049;19;153594;-54
2022/04/12 02:11:36;;;;;;;;;;;;;;;20.09;37.73;100254.78;7278352;19;151659;-54
2022/04/12 02:14:03;;;;;;;;;;;;;;;20.09;37.88;100256.75;7275728;19;152711;-55
2022/04/12 02:16:30;;;;;;;;;;;;;;;20.09;38.26;100249.16;7274738;19;154139;-54
2022/04/12 02:18:57;;;;;;;;;;;;;;;20.06;37.83;100241.41;7280112;19;152281;-55
2022/04/12 02:21:23;;;;;;;;;;;;;;;20.06;37.89;100240.56;7277984;19;152062;-54
2022/04/12 02:23:50;;;;;;;;;;;;;;;20.04;37.90;100245.66;7277203;19;153484;-54
2022/04/12 02:26:17;;;;;;;;;;;;;;;20.07;38.22;100248.66;7286690;19;151963;-54
2022/04/12 02:28:43;;;;;;;;;;;;;;;20.05;37.80;100256.56;7276803;19;154065;-55
2022/04/12 02:31:10;;;;;;;;;;;;;;;20.07;38.25;100265.50;7277272;19;151823;-55
2022/04/12 02:33:37;;;;;;;;;;;;;;;20.03;37.89;100250.47;7278291;19;152412;-55
2022/04/12 02:36:04;;;;;;;;;;;;;;;20.02;38.23;100253.59;7277822;19;153304;-54
2022/04/12 02:38:31;;;;;;;;;;;;;;;20.02;38.08;100260.03;7276861;19;151599;-54
2022/04/12 02:40:58;;;;;;;;;;;;;;;20.02;37.83;100260.03;7276629;19;152995;-54
2022/04/12 02:43:24;;;;;;;;;;;;;;;20.04;37.99;100256.88;7275374;19;153327;-55
2022/04/12 02:45:52;;;;;;;;;;;;;;;20.01;37.97;100266.78;7277805;19;152166;-55
2022/04/12 02:48:18;;;;;;;;;;;;;;;20.02;37.74;100265.63;7284795;19;153455;-55
2022/04/12 02:50:45;;;;;;;;;;;;;;;20.01;37.88;100269.59;7275309;19;152325;-55
2022/04/12 02:53:12;;;;;;;;;;;;;;;19.99;38.22;100263.44;7277938;19;154061;-55
2022/04/12 02:55:38;;;;;;;;;;;;;;;19.97;37.85;100262.97;7276747;19;153958;-55
2022/04/12 02:58:05;;;;;;;;;;;;;;;19.97;37.92;100268.56;7275081;19;152516;-55
2022/04/12 03:00:32;;;;;;;;;;;;;;;19.95;38.11;100257.66;7277315;19;153327;-55
2022/04/12 03:02:58;;;;;;;;;;;;;;;19.95;38.01;100240.00;7277596;19;153235;-55
2022/04/12 03:05:25;;;;;;;;;;;;;;;19.94;37.95;100229.97;7278408;19;152106;-54
2022/04/12 03:07:52;;;;;;;;;;;;;;;19.91;38.31;100231.44;7276834;19;152633;-55
2022/04/12 03:10:19;;;;;;;;;;;;;;;19.93;38.00;100237.56;7282911;19;154229;-55
2022/04/12 03:12:45;;;;;;;;;;;;;;;19.91;38.40;100237.03;7275702;19;152635;-54
2022/04/12 03:15:12;;;;;;;;;;;;;;;19.94;38.02;100249.59;7275629;19;153322;-54
2022/04/12 03:17:39;;;;;;;;;;;;;;;19.92;37.97;100246.28;7274820;19;152051;-55
2022/04/12 03:20:06;;;;;;;;;;;;;;;19.93;38.07;100245.13;7277315;19;152921;-55
2022/04/12 03:22:33;;;;;;;;;;;;;;;19.89;38.21;100239.34;7276553;19;155199;-54
2022/04/12 03:25:01;;;;;;;;;;;;;;;19.91;38.46;100231.44;7286004;19;151644;-54
2022/04/12 03:27:28;;;;;;;;;;;;;;;19.89;38.18;100221.69;7282724;19;153349;-54
2022/04/12 03:29:56;;;;;;;;;;;;;;;19.87;38.50;100210.78;7281682;19;154624;-55
2022/04/12 03:32:22;;;;;;;;;;;;;;;19.86;38.67;100216.72;7290164;19;151898;-54
2022/04/12 03:34:50;;;;;;;;;;;;;;;19.90;38.18;100217.72;7283379;19;153971;-55
2022/04/12 03:37:16;;;;;;;;;;;;;;;19.88;38.41;100212.44;7283925;19;151980;-55
2022/04/12 03:39:45;;;;;;;;;;;;;;;19.87;38.21;100204.34;7284550;19;153218;-54
2022/04/12 03:42:11;;;;;;;;;;;;;;;19.87;38.46;100210.78;7283136;19;152328;-54
2022/04/12 03:44:38;;;;;;;;;;;;;;;19.85;38.75;100207.47;7284758;19;151748;-54
2022/04/12 03:47:05;;;;;;;;;;;;;;;19.87;38.74;100198.75;7284921;19;152703;-54
2022/04/12 03:49:32;;;;;;;;;;;;;;;19.84;38.50;100200.22;7283382;19;155467;-54
2022/04/12 03:51:58;;;;;;;;;;;;;;;19.85;38.72;100195.47;7282589;19;151802;-54
2022/04/12 03:54:25;;;;;;;;;;;;;;;19.83;38.76;100198.56;7288761;19;152606;-54
2022/04/12 03:56:54;;;;;;;;;;;;;;;19.83;38.46;100198.56;7283824;19;152107;-54
2022/04/12 03:59:28;;;;;;;;;;;;;;;19.82;38.63;100201.69;7281228;19;152482;-54
2022/04/12 04:01:55;;;;;;;;;;;;;;;19.79;38.65;100202.34;7283336;19;152602;-55
2022/04/12 04:04:22;;;;;;;;;;;;;;;19.79;38.65;100202.34;7284259;19;151792;-55
2022/04/12 04:06:48;;;;;;;;;;;;;;;19.81;38.49;100189.66;7281562;19;153213;-55
2022/04/12 04:09:15;;;;;;;;;;;;;;;19.76;38.82;100184.16;7282526;19;154367;-54
2022/04/12 04:11:42;;;;;;;;;;;;;;;19.79;39.04;100191.13;7283857;19;151892;-54
2022/04/12 04:14:10;;;;;;;;;;;;;;;19.80;38.58;100188.00;7283734;19;153219;-55
2022/04/12 04:16:38;;;;;;;;;;;;;;;19.80;38.53;100173.16;7289659;19;154162;-54
2022/04/12 04:19:08;;;;;;;;;;;;;;;19.80;38.60;100170.38;7281080;19;154082;-54
2022/04/12 04:21:36;;;;;;;;;;;;;;;19.80;39.06;100159.97;7282757;19;153715;-55
2022/04/12 04:24:03;;;;;;;;;;;;;;;19.82;38.98;100156.84;7281243;19;151890;-55
2022/04/12 04:26:29;;;;;;;;;;;;;;;19.84;39.08;100169.41;7283226;19;153594;-55
2022/04/12 04:28:56;;;;;;;;;;;;;;;19.87;39.01;100174.34;7279771;19;154130;-54
2022/04/12 04:31:23;;;;;;;;;;;;;;;19.90;38.97;100175.66;7282887;19;151641;-54
2022/04/12 04:33:55;;;;;;;;;;;;;;;19.93;39.30;100173.06;7280492;19;152978;-54
2022/04/12 04:36:22;;;;;;;;;;;;;;;20.00;39.12;100178.19;7289211;19;153636;-55
2022/04/12 04:38:49;;;;;;;;;;;;;;;20.06;38.91;100173.28;7280745;19;153689;-54
2022/04/12 04:41:15;;;;;;;;;;;;;;;20.12;39.17;100188.81;7282286;19;155175;-54
2022/04/12 04:43:45;;;;;;;;;;;;;;;20.16;38.81;100192.63;7283045;19;151901;-54
2022/04/12 04:46:13;;;;;;;;;;;;;;;20.21;38.93;100190.50;7283251;19;153242;-54
2022/04/12 04:48:41;;;;;;;;;;;;;;;20.29;38.34;100183.25;7282136;19;153472;-54
2022/04/12 04:51:08;;;;;;;;;;;;;;;20.34;38.71;100189.59;7282731;19;151853;-55
2022/04/12 04:53:37;;;;;;;;;;;;;;;20.39;38.52;100180.19;7282762;19;153091;-54
2022/04/12 04:56:05;;;;;;;;;;;;;;;20.46;38.38;100186.13;7281289;19;153719;-54
2022/04/12 04:58:31;;;;;;;;;;;;;;;20.50;38.26;100187.13;7288198;19;151707;-54
2022/04/12 05:00:58;;;;;;;;;;;;;;;20.58;38.03;100194.72;7281620;19;153703;-54
2022/04/12 05:03:27;;;;;;;;;;;;;;;20.63;38.08;100188.13;7282253;19;151903;-54
2022/04/12 05:05:54;;;;;;;;;;;;;;;20.68;38.36;100193.59;7280629;19;152097;-54
2022/04/12 05:08:21;;;;;;;;;;;;;;;20.74;37.92;100189.50;7279143;19;152021;-54
2022/04/12 05:10:47;;;;;;;;;;;;;;;20.77;38.33;100198.06;7282194;19;151542;-54
2022/04/12 05:13:15;;;;;;;;;;;;;;;20.82;37.82;100197.91;7277961;19;153339;-54
2022/04/12 05:15:42;;;;;;;;;;;;;;;20.89;37.70;100208.69;7279943;19;153418;-54
2022/04/12 05:18:09;;;;;;;;;;;;;;;20.95;38.04;100212.94;7278716;19;151761;-54
2022/04/12 05:20:35;;;;;;;;;;;;;;;21.01;37.87;100210.81;7287615;19;153404;-55
2022/04/12 05:23:07;;;;;;;;;;;;;;;21.06;37.76;100219.09;7282572;19;151759;-55
2022/04/12 05:25:34;;;;;;;;;;;;;;;21.09;37.92;100218.41;7282582;19;153366;-55
2022/04/12 05:28:01;;;;;;;;;;;;;;;21.14;37.57;100224.72;7277768;19;153873;-54
2022/04/12 05:30:27;;;;;;;;;;;;;;;21.19;37.72;100237.78;7281645;19;151659;-54
2022/04/12 05:32:54;;;;;;;;;;;;;;;21.21;37.83;100233.47;7278379;19;152658;-55
2022/04/12 05:35:21;;;;;;;;;;;;;;;21.26;37.58;100236.13;7280738;19;153956;-54
2022/04/12 05:37:50;;;;;;;;;;;;;;;21.29;37.44;100232.69;7280160;19;151858;-54
2022/04/12 05:40:21;;;;;;;;;;;;;;;21.35;37.43;100218.47;7281755;19;153884;-54
2022/04/12 05:42:48;;;;;;;;;;;;;;;21.37;37.31;100205.72;7286107;19;153490;-54
2022/04/12 05:45:15;;;;;;;;;;;;;;;21.41;37.13;100192.66;7279457;19;154498;-54
2022/04/12 05:47:43;;;;;;;;;;;;;;;21.45;37.32;100188.00;7279265;19;154645;-54
2022/04/12 05:50:11;;;;;;;;;;;;;;;21.49;37.18;100174.94;7279351;19;151928;-55
2022/04/12 05:52:38;;;;;;;;;;;;;;;21.52;37.09;100179.09;7279966;19;154434;-54
2022/04/12 05:55:06;;;;;;;;;;;;;;;21.55;37.30;100176.44;7279815;19;153975;-54
2022/04/12 05:57:35;;;;;;;;;;;;;;;21.58;37.14;100167.31;7279604;19;151738;-54
2022/04/12 06:00:03;;;;;;;;;;;;;;;21.61;37.35;100146.97;7280921;19;152744;-54
2022/04/12 06:02:29;;;;;;;;;;;;;;;21.66;37.29;100134.72;7276813;19;156915;-54
2022/04/12 06:04:56;;;;;;;;;;;;;;;21.68;36.89;100147.28;7288261;19;151831;-54
2022/04/12 06:07:28;;;;;;;;;;;;;;;21.73;36.81;100154.72;7278289;19;153309;-54
2022/04/12 06:09:55;;;;;;;;;;;;;;;21.77;36.99;100146.41;7278618;19;151747;-54
2022/04/12 06:12:22;;;;;;;;;;;;;;;21.79;36.89;100132.88;7278744;19;152758;-55
2022/04/12 06:14:48;;;;;;;;;;;;;;;21.81;36.96;100128.53;7279162;19;154018;-54
2022/04/12 06:17:15;;;;;;;;;;;;;;;21.84;36.75;100139.13;7277223;19;151810;-54
2022/04/12 06:19:42;;;;;;;;;;;;;;;21.88;37.03;100154.16;7277356;19;152152;-54
2022/04/12 06:22:09;;;;;;;;;;;;;;;21.91;36.77;100170.34;7278275;19;153686;-54
2022/04/12 06:24:35;;;;;;;;;;;;;;;21.94;36.86;100185.78;7279427;19;151566;-54
2022/04/12 06:27:03;;;;;;;;;;;;;;;21.97;36.64;100194.38;7286293;19;154292;-54
2022/04/12 06:29:29;;;;;;;;;;;;;;;22.00;36.99;100212.53;7278949;19;151797;-54
2022/04/12 06:31:56;;;;;;;;;;;;;;;22.01;36.53;100220.66;7278808;19;152689;-55
2022/04/12 06:34:23;;;;;;;;;;;;;;;22.05;37.25;100218.81;7275925;19;153790;-54
2022/04/12 06:36:50;;;;;;;;;;;;;;;22.09;36.94;100247.09;7278198;19;152560;-54
2022/04/12 06:39:18;;;;;;;;;;;;;;;22.11;36.46;100242.81;7274366;19;153739;-54
2022/04/12 06:41:45;;;;;;;;;;;;;;;22.14;36.85;100238.47;7278214;19;154771;-54
2022/04/12 06:44:11;;;;;;;;;;;;;;;22.14;36.65;100224.41;7278882;19;151773;-54
2022/04/12 06:46:38;;;;;;;;;;;;;;;22.15;36.62;100224.09;7284240;19;153617;-54
2022/04/12 06:49:05;;;;;;;;;;;;;;;22.18;36.65;100233.81;7277663;19;151788;-54
2022/04/12 06:51:32;;;;;;;;;;;;;;;22.21;36.66;100223.91;7278731;19;152941;-54
2022/04/12 06:53:58;;;;;;;;;;;;;;;22.23;36.46;100208.31;7274099;19;154103;-54
2022/04/12 06:56:29;;;;;;;;;;;;;;;22.26;36.27;100210.44;7278258;19;151665;-54
2022/04/12 06:58:55;;;;;;;;;;;;;;;22.28;36.70;100199.69;7282219;19;152608;-54
2022/04/12 07:01:22;;;;;;;;;;;;;;;22.30;36.24;100196.56;7284117;19;153950;-54
2022/04/12 07:03:49;;;;;;;;;;;;;;;22.32;36.71;100202.66;7281273;19;153956;-54
2022/04/12 07:06:16;;;;;;;;;;;;;;;22.35;36.65;100210.44;7284990;19;152625;-54
2022/04/12 07:08:43;;;;;;;;;;;;;;;22.37;36.66;100208.91;7290575;19;153433;-55
2022/04/12 07:11:09;;;;;;;;;;;;;;;22.39;36.70;100198.16;7282709;19;152630;-54
2022/04/12 07:13:36;;;;;;;;;;;;;;;22.42;36.71;100193.81;7280811;19;154200;-55
2022/04/12 07:16:03;;;;;;;;;;;;;;;22.44;36.26;100185.88;7284644;19;152123;-54
2022/04/12 07:18:30;;;;;;;;;;;;;;;22.47;36.96;100180.38;7283683;19;153401;-54
2022/04/12 07:20:57;;;;;;;;;;;;;;;22.49;36.35;100175.22;7281816;19;154627;-54
2022/04/12 07:23:23;;;;;;;;;;;;;;;22.52;36.28;100174.56;7285218;19;151848;-54
2022/04/12 07:25:52;;;;;;;;;;;;;;;22.55;36.61;100179.50;7279547;19;153781;-54
2022/04/12 07:28:19;;;;;;;;;;;;;;;22.58;36.47;100189.25;7280754;19;153737;-55
2022/04/12 07:30:46;;;;;;;;;;;;;;;22.60;36.71;100198.19;7291963;19;152119;-54
2022/04/12 07:33:20;;;;;;;;;;;;;;;22.62;36.65;100202.31;7281852;19;153848;-54
2022/04/12 07:35:47;;;;;;;;;;;;;;;22.65;36.68;100197.16;7283802;19;151865;-54
2022/04/12 07:38:14;;;;;;;;;;;;;;;22.67;36.38;100189.22;7282418;19;153404;-54
2022/04/12 07:40:40;;;;;;;;;;;;;;;22.69;36.29;100198.97;7282347;19;153759;-54
2022/04/12 07:43:07;;;;;;;;;;;;;;;22.71;36.22;100191.03;7282148;19;151949;-54
2022/04/12 07:45:34;;;;;;;;;;;;;;;22.72;36.50;100197.47;7283840;19;153324;-54
2022/04/12 07:48:00;;;;;;;;;;;;;;;22.72;36.45;100180.56;7281386;19;154006;-55
2022/04/12 07:50:27;;;;;;;;;;;;;;;22.73;36.37;100179.41;7283657;19;152271;-54
2022/04/12 07:52:54;;;;;;;;;;;;;;;22.75;36.48;100194.00;7286320;19;152576;-55
2022/04/12 07:55:20;;;;;;;;;;;;;;;22.75;36.59;100188.34;7283272;19;151745;-54
2022/04/12 07:57:47;;;;;;;;;;;;;;;22.77;36.15;100200.09;7283400;19;153285;-54
2022/04/12 08:00:14;;;;;;;;;;;;;;;22.74;36.49;100198.78;7278743;19;155225;-54
2022/04/12 08:02:41;;;;;;;;;;;;;;;22.77;36.32;100202.91;7282910;19;151727;-55
2022/04/12 08:05:08;;;;;;;;;;;;;;;22.75;36.16;100205.25;7282373;19;153708;-54
2022/04/12 08:07:34;;;;;;;;;;;;;;;22.75;36.19;100196.81;7281185;19;152167;-54
2022/04/12 08:10:01;;;;;;;;;;;;;;;22.75;36.12;100192.00;7277870;19;151845;-54
2022/04/12 08:12:28;;;;;;;;;;;;;;;22.75;36.60;100185.53;7281962;19;151885;-55
2022/04/12 08:14:54;;;;;;;;;;;;;;;22.75;36.70;100179.91;7286020;19;153541;-55
2022/04/12 08:17:21;;;;;;;;;;;;;;;22.72;36.21;100181.41;7283198;19;152661;-55
2022/04/12 08:19:48;;;;;;;;;;;;;;;22.72;36.72;100166.50;7280173;19;153503;-54
2022/04/12 08:22:15;;;;;;;;;;;;;;;22.69;36.59;100176.44;7279954;19;152081;-54
2022/04/12 08:25:02;;;;;;;;;;;;;;;22.70;36.21;100216.72;7280693;19;155353;-54
2022/04/12 08:27:28;;;;;;;;;;;;;;;22.71;36.26;100207.94;7280868;19;153336;-54
2022/04/12 08:29:55;;;;;;;;;;;;;;;22.69;36.34;100184.06;7279650;19;152726;-55
2022/04/12 08:32:22;;;;;;;;;;;;;;;22.64;36.67;100182.25;7280413;19;152987;-55
2022/04/12 08:34:49;;;;;;;;;;;;;;;22.65;36.46;100214.06;7280980;19;154289;-55
2022/04/12 08:37:15;;;;;;;;;;;;;;;22.60;36.48;100215.91;7286943;19;151683;-55
2022/04/12 08:39:42;;;;;;;;;;;;;;;22.59;36.64;100213.44;7278530;19;153641;-55
2022/04/12 08:42:09;;;;;;;;;;;;;;;22.57;36.78;100190.44;7280395;19;151613;-55
2022/04/12 08:44:36;;;;;;;;;;;;;;;22.50;36.73;100176.88;7280613;19;153465;-56
2022/04/12 08:47:04;;;;;;;;;;;;;;;22.57;36.64;100198.88;7280776;19;154140;-54
2022/04/12 08:49:32;;;;;;;;;;;;;;;22.58;36.54;100203.31;7281120;19;151618;-55
2022/04/12 08:51:59;;;;;;;;;;;;;;;22.59;36.76;100183.28;7282634;19;152878;-55
2022/04/12 08:54:27;;;;;;;;;;;;;;;22.60;36.80;100193.38;7281200;19;154053;-54
2022/04/12 08:56:56;;;;;;;;;;;;;;;22.60;36.84;100184.94;7289060;19;152567;-54
2022/04/12 08:59:28;;;;;;;;;;;;;;;22.59;36.62;100185.28;7279354;19;154309;-55
2022/04/12 09:01:56;;;;;;;;;;;;;;;22.61;37.97;100172.53;7281392;19;152489;-56
2022/04/12 09:04:26;;;;;;;;;;;;;;;22.68;40.42;100168.31;7283721;19;153710;-59
2022/04/12 09:06:56;;;;;;;;;;;;;;;22.84;42.63;100169.41;7279859;19;153680;-62
2022/04/12 09:09:30;;;;;;;;;;;;;;;23.04;40.63;100177.00;7283217;19;151883;-60
2022/04/12 09:12:02;;;;;;;;;;;;;;;23.24;39.07;100184.66;7281281;19;152856;-60
2022/04/12 09:14:36;;;;;;;;;;;;;;;23.30;39.35;100182.44;7280808;19;153560;-66
2022/04/12 09:17:10;;;;;;;;;;;;;;;23.38;39.02;100190.81;7278434;19;151641;-60
2022/04/12 09:19:45;;;;;;;;;;;;;;;23.47;38.76;100202.88;7286338;19;153834;-60
2022/04/12 09:22:19;;;;;;;;;;;;;;;23.43;38.21;100207.53;7280102;19;151479;-59
2022/04/12 09:24:47;;;;;;;;;;;;;;;23.45;38.05;100215.66;7280846;19;152399;-59
2022/04/12 09:27:14;;;;;;;;;;;;;;;23.41;38.27;100225.94;7281132;19;153925;-60
2022/04/12 09:29:45;;;;;;;;;;;;;;;23.49;37.42;100194.03;7278657;19;152232;-60
2022/04/12 09:32:15;;;;;;;;;;;;;;;23.44;37.39;100146.31;7278685;19;153365;-60
2022/04/12 09:34:43;;;;;;;;;;;;;;;23.43;37.56;100142.66;7279607;19;152330;-59
2022/04/12 09:37:20;;;;;;;;;;;;;;;23.43;37.39;100137.03;7280427;19;153373;-60
2022/04/12 09:39:59;;;;;;;;;;;;;;;23.40;37.15;100129.25;7278035;19;152568;-60
2022/04/12 09:42:42;;;;;;;;;;;;;;;23.40;37.11;100120.78;7287090;19;154066;-60
2022/04/12 09:45:30;;;;;;;;;;;;;;;23.39;37.25;100112.69;7280468;19;153380;-59
2022/04/12 09:47:59;;;;;;;;;;;;;;;23.38;37.09;100094.97;7278639;19;152584;-60
2022/04/12 09:50:45;;;;;;;;;;;;;;;23.37;36.87;100106.56;7279685;19;151666;-59
2022/04/12 09:53:12;;;;;;;;;;;;;;;23.34;37.26;100122.19;7280237;19;153399;-60
2022/04/12 09:55:46;;;;;;;;;;;;;;;23.32;36.74;100116.06;7278547;19;153238;-60
2022/04/12 09:58:16;;;;;;;;;;;;;;;23.31;37.04;100122.06;7279278;19;152010;-60
2022/04/12 10:00:47;;;;;;;;;;;;;;;23.27;36.77;100121.94;7278293;19;152591;-60
2022/04/12 10:03:35;;;;;;;;;;;;;;;23.25;37.02;100124.28;7275654;19;156448;-59
2022/04/12 10:06:03;;;;;;;;;;;;;;;23.22;36.84;100139.06;7287948;19;151823;-60
2022/04/12 10:08:33;;;;;;;;;;;;;;;23.18;37.41;100152.19;7276450;19;154153;-60
2022/04/12 10:11:00;;;;;;;;;;;;;;;23.16;37.40;100167.81;7280865;19;151659;-60
2022/04/12 10:13:29;;;;;;;;;;;;;;;23.13;37.39;100179.75;7277424;19;153260;-59
2022/04/12 10:15:56;;;;;;;;;;;;;;;23.11;36.95;100165.19;7278713;19;153316;-59
2022/04/12 10:18:23;;;;;;;;;;;;;;;23.11;37.04;100170.84;7278748;19;151937;-60
2022/04/12 10:20:50;;;;;;;;;;;;;;;23.08;37.28;100169.53;7277234;19;153531;-60
2022/04/12 10:23:18;;;;;;;;;;;;;;;23.05;37.19;100165.41;7277092;19;154285;-59
2022/04/12 10:25:47;;;;;;;;;;;;;;;23.03;37.40;100198.72;7280962;19;152546;-60
2022/04/12 10:28:14;;;;;;;;;;;;;;;23.04;37.37;100205.19;7284419;19;152151;-59
2022/04/12 10:30:41;;;;;;;;;;;;;;;23.07;37.40;100187.63;7279598;19;151904;-59
2022/04/12 10:33:24;;;;;;;;;;;;;;;23.02;37.49;100174.56;7278432;19;153300;-60
2022/04/12 10:35:55;;;;;;;;;;;;;;;23.00;37.63;100168.44;7278448;19;153740;-59
2022/04/12 10:38:23;;;;;;;;;;;;;;;22.97;37.75;100162.66;7276577;19;152375;-60
2022/04/12 10:40:51;;;;;;;;;;;;;;;22.97;37.84;100166.31;7275629;19;153297;-61
2022/04/12 10:43:29;;;;;;;;;;;;;;;22.94;37.53;100166.19;7276917;19;153949;-59
2022/04/12 10:45:56;;;;;;;;;;;;;;;22.96;38.00;100201.28;7278517;19;152100;-59
2022/04/12 10:48:24;;;;;;;;;;;;;;;22.90;37.91;100207.44;7278129;19;153391;-60
2022/04/12 10:50:58;;;;;;;;;;;;;;;22.84;38.24;100194.75;7284341;19;151893;-59
2022/04/12 10:53:39;;;;;;;;;;;;;;;22.80;38.14;100203.06;7277516;19;152020;-59
2022/04/12 10:56:12;;;;;;;;;;;;;;;22.77;38.39;100203.72;7277572;19;153965;-59
2022/04/12 10:58:39;;;;;;;;;;;;;;;22.78;38.82;100184.84;7278073;19;152196;-59
2022/04/12 11:01:10;;;;;;;;;;;;;;;22.75;38.56;100189.19;7276104;19;153794;-60
2022/04/12 11:03:40;;;;;;;;;;;;;;;22.73;38.73;100179.41;7276905;19;153884;-59
2022/04/12 11:06:14;;;;;;;;;;;;;;;22.71;38.93;100184.56;7278033;19;151718;-59
2022/04/12 11:08:43;;;;;;;;;;;;;;;22.71;39.32;100178.94;7279052;19;152671;-60
2022/04/12 11:11:10;;;;;;;;;;;;;;;22.69;39.38;100181.22;7284408;19;153526;-59
2022/04/12 11:13:37;;;;;;;;;;;;;;;22.69;39.13;100175.59;7276084;19;153826;-59
2022/04/12 11:16:08;;;;;;;;;;;;;;;22.67;39.33;100172.31;7276451;19;154468;-58
2022/04/12 11:18:44;;;;;;;;;;;;;;;22.64;39.23;100168.19;7276302;19;152253;-60
2022/04/12 11:21:11;;;;;;;;;;;;;;;22.65;39.32;100155.75;7276142;19;152486;-59
2022/04/12 11:23:44;;;;;;;;;;;;;;;22.65;39.37;100167.03;7275110;19;153282;-59
2022/04/12 11:26:30;;;;;;;;;;;;;;;22.63;39.60;100166.53;7277900;19;152129;-60
2022/04/12 11:28:56;;;;;;;;;;;;;;;22.63;39.47;100174.97;7276145;19;154019;-59
2022/04/12 11:31:23;;;;;;;;;;;;;;;22.63;39.28;100175.81;7276331;19;154517;-59
2022/04/12 11:33:50;;;;;;;;;;;;;;;22.62;39.47;100176.97;7284772;19;152208;-59
2022/04/12 11:36:19;;;;;;;;;;;;;;;22.61;39.46;100174.50;7276774;19;154551;-60
2022/04/12 11:38:48;;;;;;;;;;;;;;;22.61;39.14;100178.16;7276580;19;152054;-59
2022/04/12 11:41:14;;;;;;;;;;;;;;;22.62;39.64;100171.31;7276007;19;153779;-59
2022/04/12 11:43:41;;;;;;;;;;;;;;;22.57;39.66;100168.75;7277006;19;154114;-58
2022/04/12 11:46:15;;;;;;;;;;;;;;;22.58;39.75;100181.63;7283491;19;152194;-59
2022/04/12 11:48:43;;;;;;;;;;;;;;;22.58;39.66;100183.63;7284464;19;151935;-59
2022/04/12 11:51:10;;;;;;;;;;;;;;;22.57;39.34;100190.44;7283151;19;153391;-59
2022/04/12 11:53:45;;;;;;;;;;;;;;;22.56;39.46;100188.78;7284017;19;152189;-59
2022/04/12 11:56:12;;;;;;;;;;;;;;;22.52;39.96;100187.81;7289619;19;153730;-60
2022/04/12 11:58:38;;;;;;;;;;;;;;;22.53;39.75;100184.63;7284481;19;151772;-59
2022/04/12 12:01:05;;;;;;;;;;;;;;;22.54;39.90;100183.47;7280250;19;153358;-59
2022/04/12 12:03:34;;;;;;;;;;;;;;;22.51;39.46;100186.16;7283239;19;153262;-60
2022/04/12 12:06:01;;;;;;;;;;;;;;;22.51;39.84;100198.25;7281334;19;152005;-60
2022/04/12 12:08:29;;;;;;;;;;;;;;;22.49;39.78;100196.91;7283464;19;153797;-59
2022/04/12 12:10:56;;;;;;;;;;;;;;;22.47;39.51;100200.09;7282194;19;152693;-59
2022/04/12 12:13:24;;;;;;;;;;;;;;;22.49;39.55;100199.72;7281778;19;152048;-60
2022/04/12 12:15:51;;;;;;;;;;;;;;;22.48;39.94;100189.66;7284304;19;152626;-59
2022/04/12 12:18:19;;;;;;;;;;;;;;;22.46;39.83;100198.44;7289266;19;153606;-58
2022/04/12 12:20:46;;;;;;;;;;;;;;;22.47;39.54;100207.72;7282139;19;153107;-59
2022/04/12 12:23:13;;;;;;;;;;;;;;;22.43;39.96;100213.19;7281183;19;153469;-60
2022/04/12 12:25:41;;;;;;;;;;;;;;;22.44;40.00;100202.78;7283361;19;151700;-60
2022/04/12 12:28:15;;;;;;;;;;;;;;;22.42;39.65;100211.53;7281326;19;153434;-59
2022/04/12 12:30:43;;;;;;;;;;;;;;;22.40;40.09;100213.84;7282482;19;153294;-58
2022/04/12 12:33:10;;;;;;;;;;;;;;;22.39;40.07;100211.41;7282240;19;151540;-59
2022/04/12 12:35:41;;;;;;;;;;;;;;;22.36;39.96;100235.41;7282532;19;152655;-58